createdAt,value
2022-08-28T00:00:52.857Z,29.88
2022-08-28T00:01:55.574Z,29.89
2022-08-28T00:02:58.196Z,29.90
2022-08-28T00:04:01.006Z,29.90
2022-08-28T00:05:02.853Z,29.89
2022-08-28T00:06:05.470Z,29.87
2022-08-28T00:07:07.050Z,29.85
2022-08-28T00:08:11.090Z,29.85
2022-08-28T00:09:12.969Z,29.87
2022-08-28T00:10:17.508Z,29.87
2022-08-28T00:11:21.108Z,29.86
2022-08-28T00:12:23.109Z,29.88
2022-08-28T00:13:25.660Z,29.87
2022-08-28T00:14:27.388Z,29.85
2022-08-28T00:15:32.611Z,29.84
2022-08-28T00:16:34.403Z,29.85
2022-08-28T00:17:36.570Z,29.84
2022-08-28T00:18:39.636Z,29.84
2022-08-28T00:19:41.627Z,29.82
2022-08-28T00:20:44.118Z,29.82
2022-08-28T00:21:46.166Z,29.83
2022-08-28T00:22:48.693Z,29.82
2022-08-28T00:23:50.424Z,29.82
2022-08-28T00:24:52.043Z,29.82
2022-08-28T00:25:57.208Z,29.82
2022-08-28T00:27:18.479Z,29.81
2022-08-28T00:28:23.400Z,29.79
2022-08-28T00:29:25.704Z,29.78
2022-08-28T00:30:33.686Z,29.77
2022-08-28T00:31:38.555Z,29.78
2022-08-28T00:32:40.236Z,29.76
2022-08-28T00:33:42.418Z,29.76
2022-08-28T00:34:44.060Z,29.76
2022-08-28T00:35:46.599Z,29.75
2022-08-28T00:36:48.261Z,29.77
2022-08-28T00:37:50.644Z,29.77
2022-08-28T00:38:52.952Z,29.77
2022-08-28T00:39:55.815Z,29.78
2022-08-28T00:41:03.705Z,29.75
2022-08-28T00:42:06.147Z,29.76
2022-08-28T00:43:09.017Z,29.75
2022-08-28T00:44:23.964Z,29.70
2022-08-28T00:45:26.760Z,29.76
2022-08-28T00:46:28.341Z,29.75
2022-08-28T00:47:30.233Z,29.74
2022-08-28T00:48:32.892Z,29.74
2022-08-28T00:49:40.737Z,29.72
2022-08-28T00:51:00.996Z,29.74
2022-08-28T00:52:08.649Z,29.72
2022-08-28T00:53:13.690Z,29.73
2022-08-28T00:54:15.396Z,29.75
2022-08-28T00:55:22.518Z,29.72
2022-08-28T00:56:25.696Z,29.76
2022-08-28T00:57:54.977Z,29.70
2022-08-28T00:59:02.912Z,29.77
2022-08-28T01:00:10.931Z,29.75
2022-08-28T01:01:13.360Z,29.75
2022-08-28T01:02:15.146Z,29.72
2022-08-28T01:03:16.933Z,29.71
2022-08-28T01:04:21.459Z,29.70
2022-08-28T01:05:23.924Z,29.69
2022-08-28T01:06:25.658Z,29.68
2022-08-28T01:07:27.384Z,29.68
2022-08-28T01:08:30.444Z,29.67
2022-08-28T01:09:33.301Z,29.67
2022-08-28T01:10:35.027Z,29.67
2022-08-28T01:11:36.711Z,29.67
2022-08-28T01:12:38.880Z,29.65
2022-08-28T01:13:46.880Z,29.62
2022-08-28T01:14:51.151Z,29.64
2022-08-28T01:15:54.531Z,29.66
2022-08-28T01:16:57.269Z,29.66
2022-08-28T01:18:11.940Z,29.64
2022-08-28T01:19:20.586Z,29.63
2022-08-28T01:20:28.087Z,29.63
2022-08-28T01:21:33.205Z,29.64
2022-08-28T01:22:41.499Z,29.66
2022-08-28T01:23:54.249Z,29.63
2022-08-28T01:25:00.797Z,29.61
2022-08-28T01:26:02.372Z,29.61
2022-08-28T01:27:12.587Z,29.60
2022-08-28T01:28:14.970Z,29.61
2022-08-28T01:29:17.535Z,29.60
2022-08-28T01:30:21.904Z,29.57
2022-08-28T01:31:25.045Z,29.61
2022-08-28T01:32:33.421Z,29.58
2022-08-28T01:33:35.100Z,29.58
2022-08-28T01:34:36.710Z,29.59
2022-08-28T01:35:42.633Z,29.57
2022-08-28T01:36:44.450Z,29.60
2022-08-28T01:37:46.499Z,29.60
2022-08-28T01:38:53.071Z,29.58
2022-08-28T01:39:55.477Z,29.60
2022-08-28T01:40:58.163Z,29.60
2022-08-28T01:42:00.727Z,29.59
2022-08-28T01:43:14.606Z,29.58
2022-08-28T01:44:17.920Z,29.60
2022-08-28T01:45:23.959Z,29.57
2022-08-28T01:46:25.911Z,29.59
2022-08-28T01:47:27.490Z,29.58
2022-08-28T01:48:32.847Z,29.59
2022-08-28T01:49:34.469Z,29.59
2022-08-28T01:50:37.036Z,29.58
2022-08-28T01:51:41.200Z,29.55
2022-08-28T01:52:42.993Z,29.56
2022-08-28T01:53:46.336Z,29.55
2022-08-28T01:54:48.424Z,29.55
2022-08-28T01:55:51.559Z,29.55
2022-08-28T01:56:53.198Z,29.54
2022-08-28T01:57:55.597Z,29.56
2022-08-28T01:58:57.242Z,29.54
2022-08-28T02:00:00.090Z,29.54
2022-08-28T02:01:01.868Z,29.54
2022-08-28T02:02:04.052Z,29.54
2022-08-28T02:03:06.911Z,29.53
2022-08-28T02:04:08.700Z,29.53
2022-08-28T02:05:11.152Z,29.53
2022-08-28T02:06:13.595Z,29.53
2022-08-28T02:07:16.962Z,29.53
2022-08-28T02:08:19.423Z,29.55
2022-08-28T02:09:21.076Z,29.53
2022-08-28T02:10:24.726Z,29.53
2022-08-28T02:11:29.379Z,29.54
2022-08-28T02:12:31.946Z,29.53
2022-08-28T02:13:36.448Z,29.51
2022-08-28T02:14:39.037Z,29.51
2022-08-28T02:15:42.350Z,29.49
2022-08-28T02:16:44.033Z,29.51
2022-08-28T02:17:45.601Z,29.49
2022-08-28T02:18:47.298Z,29.50
2022-08-28T02:19:48.881Z,29.48
2022-08-28T02:20:51.336Z,29.49
2022-08-28T02:21:52.905Z,29.51
2022-08-28T02:22:55.667Z,29.49
2022-08-28T02:23:57.297Z,29.49
2022-08-28T02:24:58.902Z,29.49
2022-08-28T02:26:00.646Z,29.48
2022-08-28T02:27:02.567Z,29.48
2022-08-28T02:28:04.325Z,29.48
2022-08-28T02:29:06.486Z,29.48
2022-08-28T02:30:10.973Z,29.48
2022-08-28T02:31:13.094Z,29.48
2022-08-28T02:32:14.742Z,29.46
2022-08-28T02:33:16.627Z,29.45
2022-08-28T02:34:18.315Z,29.45
2022-08-28T02:35:21.421Z,29.45
2022-08-28T02:36:23.720Z,29.46
2022-08-28T02:37:25.421Z,29.45
2022-08-28T02:38:27.061Z,29.48
2022-08-28T02:39:29.037Z,29.47
2022-08-28T02:40:31.652Z,29.47
2022-08-28T02:41:33.415Z,29.47
2022-08-28T02:42:35.066Z,29.45
2022-08-28T02:43:36.679Z,29.43
2022-08-28T02:44:38.791Z,29.43
2022-08-28T02:45:40.444Z,29.44
2022-08-28T02:46:42.091Z,29.44
2022-08-28T02:47:44.981Z,29.42
2022-08-28T02:48:47.003Z,29.42
2022-08-28T02:49:49.001Z,29.42
2022-08-28T02:50:50.634Z,29.40
2022-08-28T02:51:52.227Z,29.39
2022-08-28T02:52:54.945Z,29.39
2022-08-28T02:53:56.583Z,29.39
2022-08-28T02:54:58.141Z,29.40
2022-08-28T02:56:00.896Z,29.41
2022-08-28T02:57:02.698Z,29.38
2022-08-28T02:58:06.610Z,29.39
2022-08-28T02:59:08.414Z,29.38
2022-08-28T03:00:13.669Z,29.36
2022-08-28T03:01:15.485Z,29.36
2022-08-28T03:02:17.138Z,29.36
2022-08-28T03:03:18.747Z,29.37
2022-08-28T03:04:20.317Z,29.36
2022-08-28T03:05:24.112Z,29.34
2022-08-28T03:06:25.693Z,29.34
2022-08-28T03:07:29.368Z,29.36
2022-08-28T03:08:32.060Z,29.35
2022-08-28T03:09:33.656Z,29.35
2022-08-28T03:10:35.374Z,29.35
2022-08-28T03:11:37.226Z,29.34
2022-08-28T03:12:39.010Z,29.32
2022-08-28T03:13:42.406Z,29.32
2022-08-28T03:14:44.210Z,29.32
2022-08-28T03:15:46.608Z,29.31
2022-08-28T03:16:53.571Z,29.32
2022-08-28T03:17:55.303Z,29.32
2022-08-28T03:18:57.526Z,29.29
2022-08-28T03:19:59.204Z,29.29
2022-08-28T03:21:01.335Z,29.27
2022-08-28T03:22:03.174Z,29.25
2022-08-28T03:23:23.236Z,29.27
2022-08-28T03:24:25.035Z,29.25
2022-08-28T03:25:27.780Z,29.23
2022-08-28T03:26:29.751Z,29.24
2022-08-28T03:27:31.423Z,29.25
2022-08-28T03:28:36.279Z,29.23
2022-08-28T03:29:37.955Z,29.22
2022-08-28T03:30:39.713Z,29.24
2022-08-28T03:31:41.306Z,29.24
2022-08-28T03:32:42.865Z,29.22
2022-08-28T03:33:45.061Z,29.23
2022-08-28T03:34:46.765Z,29.23
2022-08-28T03:35:49.233Z,29.25
2022-08-28T03:36:50.837Z,29.23
2022-08-28T03:37:52.441Z,29.25
2022-08-28T03:38:55.908Z,29.25
2022-08-28T03:39:57.757Z,29.24
2022-08-28T03:40:59.700Z,29.24
2022-08-28T03:42:01.329Z,29.23
2022-08-28T03:43:02.938Z,29.25
2022-08-28T03:44:09.260Z,29.26
2022-08-28T03:45:11.787Z,29.28
2022-08-28T03:46:19.455Z,29.25
2022-08-28T03:47:21.104Z,29.25
2022-08-28T03:48:24.330Z,29.25
2022-08-28T03:49:25.913Z,29.25
2022-08-28T03:50:29.778Z,29.26
2022-08-28T03:51:33.963Z,29.24
2022-08-28T03:52:35.505Z,29.29
2022-08-28T03:53:37.911Z,29.30
2022-08-28T03:54:40.496Z,29.32
2022-08-28T03:55:42.976Z,29.29
2022-08-28T03:56:44.609Z,29.31
2022-08-28T03:57:46.155Z,29.33
2022-08-28T03:58:52.367Z,29.31
2022-08-28T03:59:54.032Z,29.32
2022-08-28T04:00:55.730Z,29.29
2022-08-28T04:01:57.333Z,29.30
2022-08-28T04:02:59.018Z,29.31
2022-08-28T04:04:00.856Z,29.34
2022-08-28T04:05:02.452Z,29.34
2022-08-28T04:06:04.480Z,29.35
2022-08-28T04:07:06.176Z,29.38
2022-08-28T04:08:08.262Z,29.37
2022-08-28T04:09:09.816Z,29.39
2022-08-28T04:10:12.287Z,29.41
2022-08-28T04:11:13.856Z,29.45
2022-08-28T04:12:16.072Z,29.45
2022-08-28T04:13:20.742Z,29.46
2022-08-28T04:14:22.342Z,29.49
2022-08-28T04:15:23.995Z,29.54
2022-08-28T04:16:25.758Z,29.56
2022-08-28T04:17:27.351Z,29.59
2022-08-28T04:18:29.832Z,29.61
2022-08-28T04:19:31.591Z,29.64
2022-08-28T04:20:33.202Z,29.71
2022-08-28T04:21:34.850Z,29.89
2022-08-28T04:22:37.379Z,30.13
2022-08-28T04:23:43.307Z,30.42
2022-08-28T04:24:44.924Z,30.76
2022-08-28T04:25:46.484Z,31.08
2022-08-28T04:26:48.607Z,31.37
2022-08-28T04:27:51.836Z,31.62
2022-08-28T04:28:55.115Z,31.93
2022-08-28T04:29:57.853Z,32.22
2022-08-28T04:30:59.603Z,32.45
2022-08-28T04:32:02.493Z,32.65
2022-08-28T04:33:06.118Z,32.89
2022-08-28T04:34:09.316Z,33.11
2022-08-28T04:35:12.118Z,33.31
2022-08-28T04:36:16.823Z,33.54
2022-08-28T04:37:18.592Z,33.74
2022-08-28T04:38:21.164Z,33.92
2022-08-28T04:39:22.874Z,34.10
2022-08-28T04:40:24.570Z,34.24
2022-08-28T04:41:26.915Z,34.41
2022-08-28T04:42:28.554Z,34.56
2022-08-28T04:43:30.166Z,34.71
2022-08-28T04:44:32.329Z,34.86
2022-08-28T04:45:39.004Z,35.01
2022-08-28T04:46:40.733Z,35.12
2022-08-28T04:47:43.393Z,35.23
2022-08-28T04:48:45.104Z,35.37
2022-08-28T04:49:46.714Z,35.50
2022-08-28T04:50:49.847Z,35.59
2022-08-28T04:51:51.467Z,35.71
2022-08-28T04:52:53.067Z,35.85
2022-08-28T04:53:54.650Z,35.94
2022-08-28T04:54:56.223Z,36.04
2022-08-28T04:55:59.083Z,36.15
2022-08-28T04:57:01.967Z,36.27
2022-08-28T04:58:08.221Z,36.41
2022-08-28T04:59:11.646Z,36.47
2022-08-28T05:00:13.782Z,36.56
2022-08-28T05:01:18.904Z,36.62
2022-08-28T05:02:20.724Z,36.68
2022-08-28T05:03:23.053Z,36.73
2022-08-28T05:04:25.305Z,36.76
2022-08-28T05:05:26.941Z,36.74
2022-08-28T05:06:30.567Z,36.73
2022-08-28T05:07:33.076Z,36.81
2022-08-28T05:08:35.102Z,36.84
2022-08-28T05:09:36.737Z,36.82
2022-08-28T05:10:40.028Z,36.78
2022-08-28T05:11:41.908Z,36.72
2022-08-28T05:12:43.964Z,36.68
2022-08-28T05:13:46.076Z,36.63
2022-08-28T05:14:48.977Z,36.57
2022-08-28T05:15:52.213Z,36.51
2022-08-28T05:16:53.994Z,36.40
2022-08-28T05:17:55.533Z,36.39
2022-08-28T05:19:00.623Z,36.37
2022-08-28T05:20:02.534Z,36.34
2022-08-28T05:21:04.420Z,36.24
2022-08-28T05:22:06.082Z,36.15
2022-08-28T05:23:09.331Z,36.11
2022-08-28T05:24:11.612Z,36.11
2022-08-28T05:25:14.951Z,36.06
2022-08-28T05:26:19.899Z,35.99
2022-08-28T05:27:23.861Z,35.86
2022-08-28T05:28:25.542Z,35.77
2022-08-28T05:29:27.207Z,35.62
2022-08-28T05:30:28.826Z,35.48
2022-08-28T05:31:31.721Z,35.36
2022-08-28T05:32:34.383Z,35.25
2022-08-28T05:33:35.989Z,35.13
2022-08-28T05:34:37.599Z,35.02
2022-08-28T05:35:42.131Z,34.92
2022-08-28T05:36:44.167Z,34.84
2022-08-28T05:37:45.763Z,34.75
2022-08-28T05:38:47.752Z,34.66
2022-08-28T05:39:49.431Z,34.59
2022-08-28T05:40:50.988Z,34.54
2022-08-28T05:41:52.659Z,34.47
2022-08-28T05:42:54.247Z,34.38
2022-08-28T05:43:59.261Z,34.31
2022-08-28T05:45:01.349Z,34.29
2022-08-28T05:46:10.587Z,34.21
2022-08-28T05:47:13.078Z,34.16
2022-08-28T05:48:16.384Z,34.05
2022-08-28T05:49:19.585Z,33.99
2022-08-28T05:50:21.489Z,33.99
2022-08-28T05:51:26.352Z,33.97
2022-08-28T05:52:28.756Z,33.96
2022-08-28T05:53:30.411Z,33.94
2022-08-28T05:54:31.989Z,33.88
2022-08-28T05:55:33.608Z,33.82
2022-08-28T05:56:38.612Z,33.78
2022-08-28T05:57:41.504Z,33.69
2022-08-28T05:58:43.092Z,33.61
2022-08-28T05:59:44.719Z,33.57
2022-08-28T06:00:46.588Z,33.58
2022-08-28T06:01:49.591Z,33.56
2022-08-28T06:02:51.253Z,33.56
2022-08-28T06:03:55.845Z,33.55
2022-08-28T06:04:57.861Z,33.56
2022-08-28T06:06:00.474Z,33.55
2022-08-28T06:07:02.128Z,33.52
2022-08-28T06:08:03.776Z,33.48
2022-08-28T06:09:14.370Z,33.42
2022-08-28T06:10:15.970Z,33.36
2022-08-28T06:11:21.797Z,33.31
2022-08-28T06:12:26.291Z,33.32
2022-08-28T06:13:29.371Z,33.30
2022-08-28T06:14:31.812Z,33.27
2022-08-28T06:15:34.097Z,33.25
2022-08-28T06:16:37.956Z,33.08
2022-08-28T06:17:40.343Z,33.10
2022-08-28T06:18:42.096Z,33.07
2022-08-28T06:19:43.701Z,33.05
2022-08-28T06:20:46.871Z,33.04
2022-08-28T06:21:52.489Z,33.00
2022-08-28T06:22:54.080Z,32.99
2022-08-28T06:23:56.096Z,33.00
2022-08-28T06:24:57.690Z,32.84
2022-08-28T06:25:59.397Z,32.76
2022-08-28T06:27:00.972Z,32.76
2022-08-28T06:28:03.498Z,32.67
2022-08-28T06:29:10.007Z,32.72
2022-08-28T06:30:11.889Z,32.73
2022-08-28T06:31:23.695Z,32.72
2022-08-28T06:32:27.644Z,32.62
2022-08-28T06:33:29.341Z,32.66
2022-08-28T06:34:31.413Z,32.64
2022-08-28T06:35:34.479Z,32.63
2022-08-28T06:36:41.037Z,32.60
2022-08-28T06:37:42.578Z,32.63
2022-08-28T06:38:46.821Z,32.60
2022-08-28T06:39:48.464Z,32.61
2022-08-28T06:40:53.419Z,32.60
2022-08-28T06:41:55.131Z,32.60
2022-08-28T06:42:56.691Z,32.57
2022-08-28T06:43:58.762Z,32.54
2022-08-28T06:45:00.312Z,32.48
2022-08-28T06:46:02.144Z,32.43
2022-08-28T06:47:03.989Z,32.44
2022-08-28T06:48:05.649Z,32.41
2022-08-28T06:49:08.457Z,32.39
2022-08-28T06:50:10.479Z,32.39
2022-08-28T06:51:13.517Z,32.27
2022-08-28T06:52:15.103Z,32.30
2022-08-28T06:53:19.622Z,32.33
2022-08-28T06:54:23.099Z,32.33
2022-08-28T06:55:25.670Z,32.31
2022-08-28T06:56:28.957Z,32.30
2022-08-28T06:57:31.652Z,32.27
2022-08-28T06:58:35.225Z,32.14
2022-08-28T06:59:36.826Z,32.17
2022-08-28T07:00:38.903Z,32.24
2022-08-28T07:01:40.484Z,32.28
2022-08-28T07:02:42.241Z,32.28
2022-08-28T07:03:45.785Z,32.26
2022-08-28T07:04:54.005Z,32.25
2022-08-28T07:05:59.835Z,32.29
2022-08-28T07:07:01.438Z,32.09
2022-08-28T07:08:03.296Z,31.75
2022-08-28T07:09:07.797Z,31.79
2022-08-28T07:10:09.772Z,31.94
2022-08-28T07:11:15.972Z,32.05
2022-08-28T07:12:18.477Z,32.10
2022-08-28T07:13:21.899Z,32.13
2022-08-28T07:14:25.887Z,32.13
2022-08-28T07:15:28.450Z,32.17
2022-08-28T07:16:33.427Z,32.17
2022-08-28T07:17:35.997Z,32.17
2022-08-28T07:18:38.263Z,32.17
2022-08-28T07:19:39.823Z,31.96
2022-08-28T07:20:41.469Z,32.06
2022-08-28T07:21:45.215Z,32.12
2022-08-28T07:22:46.804Z,32.16
2022-08-28T07:23:51.771Z,32.18
2022-08-28T07:24:54.767Z,32.21
2022-08-28T07:25:56.816Z,32.24
2022-08-28T07:26:58.553Z,32.26
2022-08-28T07:28:00.792Z,32.28
2022-08-28T07:29:10.979Z,32.28
2022-08-28T07:30:13.559Z,32.13
2022-08-28T07:31:19.202Z,32.13
2022-08-28T07:32:23.705Z,32.08
2022-08-28T07:33:26.749Z,32.09
2022-08-28T07:34:28.348Z,32.09
2022-08-28T07:35:29.896Z,32.11
2022-08-28T07:36:31.646Z,32.16
2022-08-28T07:37:33.234Z,32.15
2022-08-28T07:38:36.944Z,32.18
2022-08-28T07:39:38.582Z,32.21
2022-08-28T07:40:40.159Z,32.21
2022-08-28T07:41:42.897Z,32.21
2022-08-28T07:43:03.194Z,32.22
2022-08-28T07:44:24.012Z,32.22
2022-08-28T07:45:26.188Z,32.09
2022-08-28T07:46:27.924Z,31.99
2022-08-28T07:47:33.982Z,32.00
2022-08-28T07:48:36.428Z,32.05
2022-08-28T07:49:39.237Z,32.07
2022-08-28T07:50:41.516Z,32.09
2022-08-28T07:51:43.107Z,32.11
2022-08-28T07:52:48.288Z,32.13
2022-08-28T07:53:49.965Z,32.12
2022-08-28T07:54:51.532Z,32.15
2022-08-28T07:55:53.242Z,32.17
2022-08-28T07:56:55.258Z,32.12
2022-08-28T07:57:56.871Z,32.15
2022-08-28T07:59:01.199Z,32.18
2022-08-28T08:00:02.892Z,32.17
2022-08-28T08:01:04.815Z,32.12
2022-08-28T08:02:07.103Z,32.12
2022-08-28T08:03:08.936Z,32.12
2022-08-28T08:04:16.014Z,32.14
2022-08-28T08:05:17.796Z,32.14
2022-08-28T08:06:19.519Z,32.17
2022-08-28T08:07:22.109Z,32.17
2022-08-28T08:08:24.581Z,32.18
2022-08-28T08:09:27.129Z,32.19
2022-08-28T08:10:33.951Z,32.09
2022-08-28T08:11:36.393Z,32.10
2022-08-28T08:12:38.052Z,32.15
2022-08-28T08:13:40.900Z,32.15
2022-08-28T08:14:43.746Z,31.85
2022-08-28T08:15:45.345Z,31.35
2022-08-28T08:16:47.649Z,31.39
2022-08-28T08:17:49.275Z,31.33
2022-08-28T08:18:52.440Z,31.53
2022-08-28T08:19:55.059Z,31.71
2022-08-28T08:20:56.858Z,31.86
2022-08-28T08:21:58.673Z,31.93
2022-08-28T08:23:00.206Z,32.00
2022-08-28T08:24:02.130Z,32.04
2022-08-28T08:25:05.263Z,32.05
2022-08-28T08:26:10.410Z,32.09
2022-08-28T08:27:11.977Z,32.13
2022-08-28T08:28:13.676Z,32.11
2022-08-28T08:29:15.625Z,32.00
2022-08-28T08:30:17.241Z,32.05
2022-08-28T08:31:22.648Z,31.92
2022-08-28T08:32:24.329Z,31.51
2022-08-28T08:33:25.910Z,30.46
2022-08-28T08:34:27.480Z,30.01
2022-08-28T08:35:29.064Z,30.04
2022-08-28T08:36:35.916Z,30.38
2022-08-28T08:37:37.492Z,30.84
2022-08-28T08:38:39.266Z,31.15
2022-08-28T08:39:42.642Z,31.33
2022-08-28T08:40:45.638Z,31.49
2022-08-28T08:41:51.270Z,31.60
2022-08-28T08:42:57.052Z,31.71
2022-08-28T08:44:20.944Z,31.77
2022-08-28T08:45:26.605Z,31.71
2022-08-28T08:46:51.896Z,31.75
2022-08-28T08:47:56.515Z,31.66
2022-08-28T08:49:03.024Z,31.70
2022-08-28T08:50:09.400Z,31.84
2022-08-28T08:51:37.091Z,31.76
2022-08-28T08:53:13.413Z,30.84
2022-08-28T08:54:19.919Z,30.91
2022-08-28T08:55:26.078Z,31.25
2022-08-28T08:56:34.971Z,31.45
2022-08-28T08:57:39.084Z,31.53
2022-08-28T08:58:44.159Z,31.52
2022-08-28T08:59:45.797Z,31.48
2022-08-28T09:01:15.367Z,31.18
2022-08-28T09:02:22.500Z,30.73
2022-08-28T09:03:49.903Z,30.40
2022-08-28T09:05:03.171Z,30.54
2022-08-28T09:06:06.955Z,30.38
2022-08-28T09:07:16.897Z,29.99
2022-08-28T09:08:34.164Z,30.47
2022-08-28T09:09:41.029Z,31.01
2022-08-28T09:10:50.464Z,31.26
2022-08-28T09:12:00.069Z,31.48
2022-08-28T09:13:19.989Z,31.69
2022-08-28T09:14:29.700Z,31.54
2022-08-28T09:15:34.690Z,31.22
2022-08-28T09:16:40.952Z,31.18
2022-08-28T09:17:47.908Z,30.59
2022-08-28T09:18:50.827Z,30.87
2022-08-28T09:19:54.334Z,31.23
2022-08-28T09:20:58.666Z,31.53
2022-08-28T09:22:01.481Z,31.75
2022-08-28T09:23:12.766Z,31.70
2022-08-28T09:24:35.516Z,31.51
2022-08-28T09:25:52.168Z,30.65
2022-08-28T09:27:14.154Z,30.91
2022-08-28T09:28:20.062Z,31.12
2022-08-28T09:29:27.756Z,31.40
2022-08-28T09:30:31.058Z,31.69
2022-08-28T09:31:39.048Z,31.62
2022-08-28T09:32:44.355Z,31.69
2022-08-28T09:33:51.973Z,31.89
2022-08-28T09:34:59.124Z,31.86
2022-08-28T09:36:29.361Z,31.24
2022-08-28T09:37:33.985Z,31.65
2022-08-28T09:38:36.624Z,31.61
2022-08-28T09:39:38.234Z,31.72
2022-08-28T09:40:58.331Z,31.90
2022-08-28T09:42:33.022Z,32.12
2022-08-28T09:43:37.952Z,32.24
2022-08-28T09:45:09.097Z,32.29
2022-08-28T09:46:24.570Z,32.36
2022-08-28T09:47:36.843Z,32.22
2022-08-28T09:48:52.391Z,32.32
2022-08-28T09:49:54.149Z,32.38
2022-08-28T09:51:05.137Z,32.42
2022-08-28T09:52:24.993Z,32.42
2022-08-28T09:53:28.487Z,32.49
2022-08-28T09:54:32.114Z,32.51
2022-08-28T09:55:43.272Z,32.42
2022-08-28T09:56:45.184Z,32.49
2022-08-28T09:57:47.249Z,32.55
2022-08-28T09:58:57.238Z,32.55
2022-08-28T09:59:58.960Z,32.39
2022-08-28T10:01:11.543Z,32.23
2022-08-28T10:02:33.131Z,32.35
2022-08-28T10:03:45.793Z,32.44
2022-08-28T10:04:53.445Z,32.53
2022-08-28T10:06:33.831Z,32.58
2022-08-28T10:07:46.438Z,32.63
2022-08-28T10:09:11.237Z,32.63
2022-08-28T10:10:35.745Z,32.68
2022-08-28T10:11:46.612Z,32.69
2022-08-28T10:13:20.560Z,32.67
2022-08-28T10:14:22.158Z,32.65
2022-08-28T10:15:38.931Z,32.43
2022-08-28T10:17:12.127Z,32.44
2022-08-28T10:18:55.141Z,32.56
2022-08-28T10:20:13.129Z,32.52
2022-08-28T10:21:18.150Z,32.60
2022-08-28T10:22:43.812Z,32.55
2022-08-28T10:23:48.139Z,32.48
2022-08-28T10:25:07.720Z,32.52
2022-08-28T10:26:33.265Z,32.10
2022-08-28T10:28:08.503Z,31.71
2022-08-28T10:29:23.847Z,32.06
2022-08-28T10:30:25.775Z,32.15
2022-08-28T10:31:36.299Z,31.70
2022-08-28T10:33:02.994Z,32.06
2022-08-28T10:34:05.719Z,32.35
2022-08-28T10:35:18.322Z,32.46
2022-08-28T10:36:33.474Z,32.61
2022-08-28T10:37:55.001Z,32.58
2022-08-28T10:39:12.266Z,32.47
2022-08-28T10:40:18.993Z,31.43
2022-08-28T10:41:37.573Z,31.11
2022-08-28T10:42:44.805Z,31.31
2022-08-28T10:43:49.787Z,31.40
2022-08-28T10:45:05.379Z,31.89
2022-08-28T10:46:16.574Z,32.11
2022-08-28T10:47:21.602Z,32.14
2022-08-28T10:48:39.791Z,32.31
2022-08-28T10:49:44.240Z,32.51
2022-08-28T10:51:16.372Z,32.64
2022-08-28T10:52:23.804Z,32.79
2022-08-28T10:53:35.645Z,32.72
2022-08-28T10:54:50.618Z,32.72
2022-08-28T10:56:14.807Z,32.80
2022-08-28T10:57:25.446Z,32.91
2022-08-28T10:58:27.773Z,32.99
2022-08-28T10:59:32.541Z,33.00
2022-08-28T11:00:37.443Z,32.80
2022-08-28T11:01:42.846Z,32.89
2022-08-28T11:02:48.848Z,32.96
2022-08-28T11:03:51.938Z,33.02
2022-08-28T11:04:58.491Z,33.02
2022-08-28T11:06:11.655Z,33.05
2022-08-28T11:07:21.345Z,33.08
2022-08-28T11:08:32.361Z,33.03
2022-08-28T11:09:47.558Z,33.02
2022-08-28T11:10:54.330Z,33.02
2022-08-28T11:12:01.993Z,33.01
2022-08-28T11:13:06.933Z,33.05
2022-08-28T11:14:10.061Z,32.51
2022-08-28T11:15:44.380Z,32.03
2022-08-28T11:16:47.218Z,31.99
2022-08-28T11:17:50.255Z,31.80
2022-08-28T11:19:02.408Z,31.37
2022-08-28T11:20:30.756Z,31.06
2022-08-28T11:21:42.521Z,31.29
2022-08-28T11:22:50.275Z,31.56
2022-08-28T11:24:01.383Z,31.42
2022-08-28T11:25:26.521Z,31.96
2022-08-28T11:27:09.929Z,32.23
2022-08-28T11:28:23.692Z,32.37
2022-08-28T11:30:00.194Z,32.34
2022-08-28T11:31:04.625Z,32.61
2022-08-28T11:32:31.395Z,32.60
2022-08-28T11:33:44.872Z,32.79
2022-08-28T11:34:57.100Z,32.82
2022-08-28T11:35:58.794Z,32.96
2022-08-28T11:37:02.632Z,33.04
2022-08-28T11:38:04.628Z,33.08
2022-08-28T11:39:19.544Z,33.11
2022-08-28T11:40:30.100Z,33.14
2022-08-28T11:41:38.542Z,32.47
2022-08-28T11:42:40.144Z,32.26
2022-08-28T11:43:43.835Z,31.94
2022-08-28T11:44:46.560Z,32.25
2022-08-28T11:45:48.259Z,32.57
2022-08-28T11:46:52.333Z,32.72
2022-08-28T11:47:56.811Z,32.86
2022-08-28T11:49:01.895Z,32.85
2022-08-28T11:50:50.858Z,32.76
2022-08-28T11:52:10.971Z,32.91
2022-08-28T11:53:21.976Z,33.06
2022-08-28T11:54:39.031Z,33.11
2022-08-28T11:56:12.837Z,33.17
2022-08-28T11:57:22.624Z,33.16
2022-08-28T11:58:44.352Z,32.84
2022-08-28T11:59:48.895Z,33.00
2022-08-28T12:01:05.683Z,33.10
2022-08-28T12:02:39.639Z,33.17
2022-08-28T12:04:08.273Z,33.25
2022-08-28T12:05:15.814Z,33.28
2022-08-28T12:06:52.547Z,33.30
2022-08-28T12:07:54.151Z,33.39
2022-08-28T12:08:58.573Z,33.38
2022-08-28T12:10:04.777Z,33.40
2022-08-28T12:11:06.822Z,33.43
2022-08-28T12:12:23.459Z,33.39
2022-08-28T12:13:43.322Z,33.34
2022-08-28T12:14:44.908Z,33.43
2022-08-28T12:16:04.006Z,33.39
2022-08-28T12:17:31.214Z,33.47
2022-08-28T12:18:39.049Z,32.96
2022-08-28T12:20:00.162Z,32.80
2022-08-28T12:21:06.151Z,33.07
2022-08-28T12:22:15.390Z,33.23
2022-08-28T12:23:44.862Z,33.25
2022-08-28T12:24:52.137Z,33.28
2022-08-28T12:26:03.566Z,33.22
2022-08-28T12:27:07.980Z,32.66
2022-08-28T12:28:27.812Z,32.84
2022-08-28T12:29:37.645Z,33.09
2022-08-28T12:31:08.313Z,33.24
2022-08-28T12:32:26.118Z,33.39
2022-08-28T12:33:40.270Z,33.41
2022-08-28T12:34:46.320Z,33.44
2022-08-28T12:35:49.882Z,33.46
2022-08-28T12:37:00.359Z,33.45
2022-08-28T12:38:04.985Z,33.49
2022-08-28T12:39:06.721Z,33.36
2022-08-28T12:40:12.460Z,33.27
2022-08-28T12:41:18.566Z,33.37
2022-08-28T12:42:30.576Z,33.42
2022-08-28T12:43:41.755Z,33.42
2022-08-28T12:44:49.040Z,33.43
2022-08-28T12:45:56.893Z,33.38
2022-08-28T12:46:59.168Z,33.35
2022-08-28T12:48:04.992Z,33.33
2022-08-28T12:49:32.048Z,33.25
2022-08-28T12:50:36.860Z,33.29
2022-08-28T12:51:38.517Z,33.29
2022-08-28T12:52:52.090Z,33.26
2022-08-28T12:53:57.963Z,33.30
2022-08-28T12:54:59.505Z,33.30
2022-08-28T12:56:02.171Z,33.30
2022-08-28T12:57:06.413Z,33.33
2022-08-28T12:58:28.550Z,33.30
2022-08-28T12:59:36.229Z,33.36
2022-08-28T13:00:51.756Z,33.36
2022-08-28T13:01:53.564Z,33.05
2022-08-28T13:02:56.919Z,33.13
2022-08-28T13:04:05.524Z,32.85
2022-08-28T13:05:10.446Z,33.08
2022-08-28T13:06:12.900Z,33.17
2022-08-28T13:07:17.696Z,33.15
2022-08-28T13:08:22.233Z,32.96
2022-08-28T13:09:27.957Z,32.27
2022-08-28T13:10:34.045Z,32.59
2022-08-28T13:11:39.121Z,32.59
2022-08-28T13:12:54.798Z,32.78
2022-08-28T13:13:58.329Z,32.78
2022-08-28T13:15:01.240Z,32.97
2022-08-28T13:16:06.144Z,33.11
2022-08-28T13:17:08.750Z,33.19
2022-08-28T13:18:10.837Z,33.25
2022-08-28T13:19:30.212Z,33.29
2022-08-28T13:20:34.910Z,33.36
2022-08-28T13:21:48.672Z,32.86
2022-08-28T13:22:50.978Z,32.58
2022-08-28T13:23:55.428Z,32.61
2022-08-28T13:25:03.039Z,32.89
2022-08-28T13:26:06.092Z,33.13
2022-08-28T13:27:16.615Z,33.21
2022-08-28T13:28:18.996Z,33.34
2022-08-28T13:29:23.929Z,33.09
2022-08-28T13:30:30.027Z,32.82
2022-08-28T13:31:33.555Z,32.98
2022-08-28T13:32:38.982Z,33.17
2022-08-28T13:33:40.545Z,33.19
2022-08-28T13:34:46.509Z,33.03
2022-08-28T13:35:50.637Z,32.44
2022-08-28T13:37:07.189Z,32.05
2022-08-28T13:38:19.020Z,32.11
2022-08-28T13:39:22.721Z,32.28
2022-08-28T13:41:59.746Z,32.88
2022-08-28T13:43:07.099Z,32.61
2022-08-28T13:44:09.267Z,32.85
2022-08-28T13:45:11.413Z,33.11
2022-08-28T13:46:13.347Z,33.18
2022-08-28T13:47:15.617Z,33.33
2022-08-28T13:48:22.896Z,32.61
2022-08-28T13:49:24.487Z,32.49
2022-08-28T13:50:27.452Z,32.82
2022-08-28T13:51:29.465Z,33.08
2022-08-28T13:52:33.821Z,33.25
2022-08-28T13:53:35.397Z,33.39
2022-08-28T13:54:41.577Z,33.45
2022-08-28T13:55:46.209Z,33.53
2022-08-28T13:56:47.786Z,33.56
2022-08-28T13:57:49.343Z,33.59
2022-08-28T13:58:57.208Z,33.62
2022-08-28T13:59:59.656Z,33.40
2022-08-28T14:01:02.847Z,33.45
2022-08-28T14:02:25.235Z,33.52
2022-08-28T14:03:36.035Z,33.58
2022-08-28T14:04:37.770Z,33.62
2022-08-28T14:05:39.344Z,33.65
2022-08-28T14:06:44.477Z,33.38
2022-08-28T14:07:46.139Z,33.30
2022-08-28T14:08:47.741Z,32.91
2022-08-28T14:09:55.545Z,32.76
2022-08-28T14:10:58.195Z,32.76